Terminal Aerodrome Forecast
Issued by NWS

Home | Current Version | Previous Version | Text Only | Print | Product List | Glossary On
Versions: 1 2 3 4 5 6 7 8 9 10 11 12 13 14 15 16
000
FTUS41 KCAR 251110 CCA
TAFBHB
TAF COR
KBHB 251110Z 2512/2612 36008KT P6SM SCT025 OVC035
     FM251500 01008KT P6SM BKN035
     FM260000 VRB03KT P6SM SCT100
     FM260300 VRB03KT P6SM SCT250
      TEMPO 2606/2610 2SM BR=

USA.gov is the U.S. government's official web portal to all federal, state and local government web resources and services.